TimeMDT,TemperatureF,Dew PointF,Humidity,Sea Level PressureIn,VisibilityMPH,Wind Direction,Wind SpeedMPH,Gust SpeedMPH,PrecipitationIn,Events,Conditions,WindDirDegrees,DateUTC
12:00 AM,51,39,53,,,ESE,6.9,,,,,110,2013-09-15 06:00:00
12:00 AM,50.5,39.0,65,-9999,-9999.0,ESE,6.9,-,N/A,,Unknown,110,2013-09-15 06:00:00
1:00 AM,48.6,38.8,69,-9999,-9999.0,ESE,8.1,-,N/A,,Unknown,110,2013-09-15 07:00:00
2:00 AM,46.9,38.7,73,-9999,-9999.0,ESE,6.9,-,N/A,,Unknown,110,2013-09-15 08:00:00
4:00 AM,43.9,37.9,80,-9999,-9999.0,East,6.9,-,N/A,,Unknown,100,2013-09-15 10:00:00
5:00 AM,44.2,37.6,77,-9999,-9999.0,East,5.8,-,N/A,,Unknown,100,2013-09-15 11:00:00
6:00 AM,43,38,74,,,East,5.8,,,,,100,2013-09-15 12:00:00
6:00 AM,42.8,37.6,82,-9999,-9999.0,East,5.8,-,N/A,,Unknown,100,2013-09-15 12:00:00
7:00 AM,43.0,37.6,81,-9999,-9999.0,East,6.9,-,N/A,,Unknown,100,2013-09-15 13:00:00
8:00 AM,46.4,39.2,76,-9999,-9999.0,ESE,4.6,-,N/A,,Unknown,110,2013-09-15 14:00:00
9:00 AM,53.4,40.8,62,-9999,-9999.0,SE,6.9,-,N/A,,Unknown,130,2013-09-15 15:00:00
10:00 AM,62.1,40.3,45,-9999,-9999.0,SSE,12.7,-,N/A,,Unknown,160,2013-09-15 16:00:00
11:00 AM,67.6,39.0,35,-9999,-9999.0,SE,13.8,-,N/A,,Unknown,140,2013-09-15 17:00:00
12:00 PM,72,39,20,,,SSE,11.5,,,,,150,2013-09-15 18:00:00
12:00 PM,72.1,39.4,30,-9999,-9999.0,SSE,11.5,-,N/A,,Unknown,150,2013-09-15 18:00:00
1:00 PM,75.2,38.5,27,-9999,-9999.0,SE,15.0,-,N/A,,Unknown,140,2013-09-15 19:00:00
2:00 PM,77.5,39.6,26,-9999,-9999.0,SE,15.0,-,N/A,,Unknown,140,2013-09-15 20:00:00
3:00 PM,79.9,39.4,23,-9999,-9999.0,SE,15.0,-,N/A,,Unknown,140,2013-09-15 21:00:00
4:00 PM,80.4,39.2,23,-9999,-9999.0,SSE,16.1,-,N/A,,Unknown,150,2013-09-15 22:00:00
5:00 PM,80.4,38.7,22,-9999,-9999.0,SSE,15.0,-,N/A,,Unknown,160,2013-09-15 23:00:00
6:00 PM,78,38,14,,,SE,16.1,,,,,140,2013-09-16 00:00:00
6:00 PM,78.4,38.1,23,-9999,-9999.0,SE,16.1,-,N/A,,Unknown,140,2013-09-16 00:00:00
7:00 PM,74.8,40.3,29,-9999,-9999.0,SE,12.7,-,N/A,,Unknown,140,2013-09-16 01:00:00
8:00 PM,64.2,41.0,43,-9999,-9999.0,ESE,8.1,-,N/A,,Unknown,120,2013-09-16 02:00:00
9:00 PM,60.3,43.5,54,-9999,-9999.0,ESE,8.1,-,N/A,,Unknown,110,2013-09-16 03:00:00
10:00 PM,59.0,44.8,59,-9999,-9999.0,ESE,8.1,-,N/A,,Unknown,110,2013-09-16 04:00:00
11:00 PM,58.3,46.9,66,-9999,-9999.0,ESE,8.1,-,N/A,,Unknown,110,2013-09-16 05:00:00